NCAR-RAP Real-Time Weather Data

Output produced by METARs form (14 October 2019  23:05 UTC)
found at http://weather.rap.ucar.edu/surface/
 
KMCI 142253Z 16011KT 10SM CLR 20/09 A2988 RMK AO2 SLP117 T02000089
KMCI 142153Z 15014KT 10SM CLR 22/07 A2990 RMK AO2 SLP122 T02170072
KMCI 142053Z 17013KT 10SM FEW250 22/08 A2991 RMK AO2 SLP125 T02220083 56027
KMCI 141953Z 16012KT 10SM FEW250 22/09 A2992 RMK AO2 SLP129 T02220094
KMCI 141853Z 15010KT 9SM CLR 21/09 A2996 RMK AO2 SLP141 T02110094
KMCI 141753Z 14009KT 10SM CLR 19/09 A2999 RMK AO2 SLP153 T01940094 10194 20028 58020
KMCI 141653Z 15007KT 10SM CLR 18/08 A3002 RMK AO2 SLP164 T01780078
KMCI 141553Z 15007KT 10SM CLR 16/06 A3004 RMK AO2 SLP170 T01560061
KMCI 141453Z 13007KT 10SM CLR 12/05 A3005 RMK AO2 SLP175 T01220050 50010
KMCI 141353Z 11009KT 10SM CLR 08/04 A3005 RMK AO2 SLP176 T00830039
KMCI 141253Z 05003KT 10SM CLR 06/02 A3004 RMK AO2 SLP174 T00560017
KMCI 141153Z 09004KT 10SM CLR 05/03 A3002 RMK AO2 SLP166 T00500028 10106 20028 58002
KMCI 141053Z 05005KT 10SM CLR 03/01 A3002 RMK AO2 SLP166 T00330011
KMCI 140953Z 00000KT 10SM CLR 07/02 A3003 RMK AO2 SLP168 T00720017
KMCI 140853Z 17004KT 10SM CLR 04/02 A3003 RMK AO2 SLP167 T00440022 53004
KMCI 140753Z 20008KT 10SM CLR 07/01 A3003 RMK AO2 SLP167 T00670006
KMCI 140653Z 00000KT 10SM CLR 06/01 A3001 RMK AO2 SLP162 T00610006
KMCI 140553Z 00000KT 10SM CLR 08/01 A3002 RMK AO2 SLP163 T00780011 10139 20067 401720017 50005
KMCI 140453Z 00000KT 10SM CLR 08/02 A3002 RMK AO2 SLP163 T00780017
KMCI 140353Z 28005KT 10SM CLR 11/01 A3001 RMK AO2 SLP161 T01110006
KMCI 140253Z 25006KT 10SM CLR 12/M01 A3000 RMK AO2 SLP158 T01171006 51014
KMCI 140153Z 23004KT 10SM CLR 12/M01 A2999 RMK AO2 SLP156 T01221006
KMCI 140053Z 20004KT 10SM CLR 11/M01 A2998 RMK AO2 SLP153 T01111006
KMCI 132353Z 24004KT 10SM CLR 14/M01 A2996 RMK AO2 SLP146 T01391006 10172 20139 53004
KMCI 132253Z 26005KT 10SM CLR 16/M01 A2996 RMK AO2 SLP143 T01561006
KMCI 132153Z 24008KT 10SM CLR 17/M01 A2995 RMK AO2 SLP141 T01671006
KMCI 132053Z 22007KT 10SM CLR 17/M01 A2995 RMK AO2 SLP140 T01671006 56014
KMCI 131953Z 23006KT 10SM CLR 16/M01 A2996 RMK AO2 SLP145 T01611011
KMCI 131853Z 28006KT 10SM CLR 16/M02 A2997 RMK AO2 SLP149 T01561022
KMCI 131753Z VRB03KT 10SM CLR 15/M02 A2999 RMK AO2 SLP154 T01501017 10150 20017 50000
KMCI 131653Z 30006KT 10SM CLR 13/M02 A3000 RMK AO2 SLP156 T01331017
KMCI 131553Z 30004KT 10SM CLR 12/M02 A3000 RMK AO2 SLP157 T01221017
KMCI 131453Z 00000KT 10SM CLR 10/M01 A2999 RMK AO2 SLP155 T01001006 53014
KMCI 131353Z 00000KT 10SM CLR 07/M01 A2997 RMK AO2 SLP149 T00721006
KMCI 131253Z 31004KT 10SM CLR 06/00 A2995 RMK AO2 SLP141 T00560000
KMCI 131153Z 26004KT 10SM CLR 03/00 A2994 RMK AO2 SLP140 T00330000 10083 20017 53007
KMCI 131053Z 23005KT 10SM CLR 03/00 A2994 RMK AO2 SLP136 T00330000
KMCI 130953Z 25004KT 10SM CLR 03/M01 A2993 RMK AO2 SLP133 T00281006
KMCI 130853Z 23006KT 10SM CLR 05/00 A2992 RMK AO2 SLP131 T00500000 51003
KMCI 130753Z 20006KT 10SM CLR 04/00 A2992 RMK AO2 SLP131 T00390000
KMCI 130653Z 25006KT 10SM CLR 07/00 A2992 RMK AO2 SLP131 T00720000
KMCI 130553Z 23007KT 10SM CLR 07/00 A2991 RMK AO2 SLP129 T00720000 10150 20072 401941017 51007
KMCI 130453Z 28005KT 10SM CLR 09/00 A2991 RMK AO2 SLP128 T00940000
KMCI 130353Z 21012KT 10SM CLR 11/00 A2990 RMK AO2 SLP123 T01060000
KMCI 130253Z 23007KT 10SM CLR 10/00 A2989 RMK AO2 SLP124 T01000000 53006
KMCI 130153Z 23008KT 10SM CLR 12/00 A2989 RMK AO2 SLP122 T01170000
KMCI 130053Z 21009KT 10SM CLR 13/00 A2987 RMK AO2 SLP119 T01280000
KMCI 122353Z 21011KT 10SM CLR 15/M01 A2987 RMK AO2 SLP118 T01501011 10194 20150 56009